createdAt,value
2023-05-14T06:58:07.140Z,71.29
2023-05-14T07:00:33.551Z,71.09
2023-05-14T07:03:00.035Z,71.20
2023-05-14T07:05:26.600Z,70.19
2023-05-14T07:07:53.021Z,69.61
2023-05-14T07:10:19.455Z,69.19
2023-05-14T07:12:45.921Z,69.20
2023-05-14T07:15:12.426Z,69.07
2023-05-14T07:17:39.085Z,68.97
2023-05-14T07:20:06.186Z,68.56
2023-05-14T07:22:32.761Z,68.06
2023-05-14T07:24:59.232Z,68.11
2023-05-14T07:27:26.003Z,68.00
2023-05-14T07:29:52.531Z,68.89
2023-05-14T07:32:18.935Z,68.45
2023-05-14T07:34:45.359Z,68.36
2023-05-14T07:37:11.832Z,69.39
2023-05-14T07:39:38.491Z,69.27
2023-05-14T07:42:05.171Z,68.36
2023-05-14T07:44:31.680Z,69.09
2023-05-14T07:46:58.218Z,68.99
2023-05-14T07:49:24.649Z,68.97
2023-05-14T07:51:51.040Z,69.50
2023-05-14T07:54:17.742Z,69.23
2023-05-14T07:56:44.545Z,70.21
2023-05-14T07:59:11.000Z,70.27
2023-05-14T08:01:39.339Z,69.82
2023-05-14T08:04:06.182Z,69.66
2023-05-14T08:06:32.848Z,68.81
2023-05-14T08:08:59.376Z,68.12
2023-05-14T08:11:26.266Z,67.03
2023-05-14T08:13:52.797Z,66.17
2023-05-14T08:16:19.325Z,67.14
2023-05-14T08:18:45.746Z,67.47
2023-05-14T08:21:12.192Z,67.40
2023-05-14T08:23:38.613Z,67.35
2023-05-14T08:26:05.180Z,66.59
2023-05-14T08:28:31.586Z,66.26
2023-05-14T08:30:58.035Z,65.10
2023-05-14T08:33:24.479Z,63.90
2023-05-14T08:35:53.043Z,61.87
2023-05-14T08:38:19.561Z,61.71
2023-05-14T08:40:59.728Z,60.89
2023-05-14T08:43:30.858Z,61.71
2023-05-14T08:46:01.061Z,60.78
2023-05-14T08:48:33.526Z,60.82
2023-05-14T08:51:01.559Z,59.99
2023-05-14T08:53:28.501Z,59.45
2023-05-14T08:55:55.053Z,58.46
2023-05-14T08:58:21.681Z,59.14
2023-05-14T09:00:48.464Z,60.00
2023-05-14T09:03:15.978Z,60.85
2023-05-14T09:05:42.962Z,59.01
2023-05-14T09:08:09.313Z,58.88
2023-05-14T09:10:35.681Z,58.18
2023-05-14T09:13:02.497Z,58.18
2023-05-14T09:15:29.664Z,60.00
2023-05-14T09:17:56.750Z,58.53
2023-05-14T09:20:25.138Z,58.93
2023-05-14T09:22:54.870Z,59.36
2023-05-14T09:25:26.813Z,58.30
2023-05-14T09:27:56.728Z,58.89
2023-05-14T09:30:25.479Z,57.64
2023-05-14T09:32:54.473Z,57.36
2023-05-14T09:35:23.411Z,55.95
2023-05-14T09:37:51.758Z,56.56
2023-05-14T09:40:19.898Z,54.89
2023-05-14T09:42:48.168Z,54.95
2023-05-14T09:45:15.764Z,55.77
2023-05-14T09:47:42.749Z,55.66
2023-05-14T09:50:10.036Z,54.76
2023-05-14T09:52:37.296Z,52.64
2023-05-14T09:55:04.212Z,52.31
2023-05-14T09:57:30.972Z,51.39
2023-05-14T09:59:57.533Z,52.03
2023-05-14T10:02:26.390Z,51.29
2023-05-14T10:04:54.510Z,51.58
2023-05-14T10:07:25.244Z,50.85
2023-05-14T10:09:58.214Z,48.27
2023-05-14T10:12:31.735Z,49.49
2023-05-14T10:15:01.293Z,48.77
2023-05-14T10:17:32.095Z,47.98
2023-05-14T10:20:02.554Z,49.60
2023-05-14T10:22:33.905Z,48.96
2023-05-14T10:25:01.867Z,47.71
2023-05-14T10:27:28.741Z,46.92
2023-05-14T10:29:56.404Z,45.02
2023-05-14T10:32:25.751Z,42.60
2023-05-14T10:34:53.554Z,42.56
2023-05-14T10:37:25.448Z,44.98
2023-05-14T10:39:51.844Z,47.87
2023-05-14T10:42:22.442Z,45.20
2023-05-14T10:45:02.032Z,44.55
2023-05-14T10:47:29.509Z,45.19
2023-05-14T10:50:00.872Z,46.16
2023-05-14T10:52:27.655Z,47.81
2023-05-14T10:55:01.928Z,49.66
2023-05-14T10:57:31.736Z,49.30
2023-05-14T11:00:01.158Z,49.17
2023-05-14T11:02:56.107Z,50.05
2023-05-14T11:05:22.740Z,50.45
2023-05-14T11:07:50.363Z,49.66
2023-05-14T11:10:25.915Z,48.18
2023-05-14T11:12:52.842Z,48.42
2023-05-14T11:15:24.541Z,46.39
2023-05-14T11:17:52.500Z,45.47
2023-05-14T11:20:19.610Z,44.44
2023-05-14T11:22:48.101Z,44.08
2023-05-14T11:25:15.214Z,43.60
2023-05-14T11:27:42.793Z,44.55
2023-05-14T11:30:17.518Z,42.98
2023-05-14T11:32:46.175Z,42.90
2023-05-14T11:35:13.314Z,42.07
2023-05-14T11:37:40.163Z,41.19
2023-05-14T11:40:16.300Z,42.26
2023-05-14T11:42:42.925Z,42.13
2023-05-14T11:45:13.941Z,43.81
2023-05-14T11:47:43.484Z,45.28
2023-05-14T11:50:11.102Z,46.58
2023-05-14T11:52:40.311Z,46.43
2023-05-14T11:55:11.619Z,45.72
2023-05-14T11:57:38.124Z,46.04
2023-05-14T12:00:08.619Z,44.25
2023-05-14T12:02:36.210Z,43.93
2023-05-14T12:05:02.851Z,43.96
2023-05-14T12:07:30.626Z,43.69
2023-05-14T12:10:01.392Z,44.36
2023-05-14T12:12:27.855Z,45.23
2023-05-14T12:14:54.400Z,45.11
2023-05-14T12:17:22.604Z,46.05
2023-05-14T12:19:52.534Z,45.86
2023-05-14T12:22:22.285Z,45.45
2023-05-14T12:24:59.314Z,44.84
2023-05-14T12:27:27.737Z,43.81
2023-05-14T12:30:19.159Z,41.11
2023-05-14T12:32:48.947Z,39.69
2023-05-14T12:35:15.609Z,39.46
2023-05-14T12:37:42.609Z,39.54
2023-05-14T12:40:09.799Z,38.71
2023-05-14T12:42:36.490Z,39.90
2023-05-14T12:45:05.628Z,42.13
2023-05-14T12:47:32.408Z,42.60
2023-05-14T12:49:58.968Z,42.33
2023-05-14T12:52:36.889Z,44.43
2023-05-14T12:55:06.918Z,44.44
2023-05-14T12:57:35.267Z,42.79
2023-05-14T13:00:07.004Z,42.79
2023-05-14T13:02:42.318Z,42.80
2023-05-14T13:05:10.761Z,42.27
2023-05-14T13:07:37.498Z,44.05
2023-05-14T13:10:05.759Z,49.39
2023-05-14T13:12:32.401Z,53.36
2023-05-14T13:14:58.871Z,58.85
2023-05-14T13:17:25.626Z,63.14
2023-05-14T13:19:52.278Z,66.96
2023-05-14T13:22:18.947Z,67.75
2023-05-14T13:24:45.680Z,67.18
2023-05-14T13:27:12.200Z,66.70
2023-05-14T13:29:38.631Z,68.03
2023-05-14T13:32:05.376Z,68.18
2023-05-14T13:34:31.844Z,66.80
2023-05-14T13:36:59.496Z,68.73
2023-05-14T13:39:27.181Z,65.92
2023-05-14T13:41:57.252Z,64.78
2023-05-14T13:44:24.541Z,64.59
2023-05-14T13:46:51.086Z,62.19
2023-05-14T13:49:17.612Z,61.06
2023-05-14T13:51:44.481Z,60.69
2023-05-14T13:54:11.188Z,60.58
2023-05-14T13:56:37.656Z,60.45
2023-05-14T13:59:04.132Z,62.47
2023-05-14T14:01:31.828Z,61.80
2023-05-14T14:03:58.652Z,63.42
2023-05-14T14:06:27.402Z,66.46
2023-05-14T14:08:54.057Z,66.74
2023-05-14T14:11:20.834Z,65.36
2023-05-14T14:13:47.353Z,61.76
2023-05-14T14:16:13.784Z,60.57
2023-05-14T14:18:40.371Z,61.59
2023-05-14T14:21:06.806Z,62.96
2023-05-14T14:23:33.346Z,61.49
2023-05-14T14:26:00.591Z,63.02
2023-05-14T14:28:27.065Z,63.25
2023-05-14T14:30:53.596Z,63.91
2023-05-14T14:33:20.244Z,63.41
2023-05-14T14:35:46.896Z,62.66
2023-05-14T14:38:13.734Z,60.00
2023-05-14T14:40:40.330Z,59.24
2023-05-14T14:43:06.829Z,60.32
2023-05-14T14:45:33.403Z,57.51
2023-05-14T14:48:37.807Z,58.50
2023-05-14T14:51:06.079Z,57.86
2023-05-14T14:53:33.285Z,58.74
2023-05-14T14:56:03.140Z,58.75
2023-05-14T14:58:30.918Z,58.49
2023-05-14T15:00:58.005Z,59.94
2023-05-14T15:03:25.107Z,59.31
2023-05-14T15:05:53.340Z,58.36
2023-05-14T15:08:20.874Z,57.23
2023-05-14T15:10:47.372Z,57.73
2023-05-14T15:13:13.970Z,56.81
2023-05-14T15:15:40.612Z,57.27
2023-05-14T15:18:07.136Z,56.72
2023-05-14T15:20:33.832Z,56.78
2023-05-14T15:23:00.307Z,55.66
2023-05-14T15:25:27.238Z,55.14
2023-05-14T15:27:53.726Z,55.25
2023-05-14T15:30:20.448Z,55.95
2023-05-14T15:32:47.068Z,55.36
2023-05-14T15:35:13.948Z,55.34
2023-05-14T15:37:42.773Z,55.49
2023-05-14T15:40:10.390Z,54.88
2023-05-14T15:42:38.888Z,53.30
2023-05-14T15:45:07.123Z,52.63
2023-05-14T15:47:33.790Z,52.73
2023-05-14T15:50:00.764Z,53.27
2023-05-14T15:52:27.234Z,56.20
2023-05-14T15:54:54.372Z,57.48
2023-05-14T15:57:20.912Z,57.83
2023-05-14T15:59:47.587Z,57.11
2023-05-14T16:02:15.375Z,58.53
2023-05-14T16:04:41.869Z,59.01
2023-05-14T16:07:10.058Z,58.38
2023-05-14T16:09:37.245Z,58.38
2023-05-14T16:12:05.104Z,58.38
2023-05-14T16:14:33.795Z,59.25
2023-05-14T16:17:01.922Z,58.50
2023-05-14T16:19:28.652Z,58.57
2023-05-14T16:21:55.316Z,58.28
2023-05-14T16:24:21.768Z,58.53
2023-05-14T16:26:48.392Z,58.31
2023-05-14T16:29:14.807Z,58.21
2023-05-14T16:31:41.247Z,59.34
2023-05-14T16:34:07.690Z,59.18
2023-05-14T16:36:34.192Z,60.10
2023-05-14T16:41:30.071Z,60.47
2023-05-14T16:43:56.508Z,60.59
2023-05-14T16:46:23.009Z,60.95
2023-05-14T16:48:50.650Z,61.16
2023-05-14T16:51:17.148Z,61.99
2023-05-14T16:53:43.588Z,62.14
2023-05-14T16:56:10.030Z,62.19
2023-05-14T16:58:36.639Z,61.78
2023-05-14T17:01:03.097Z,62.51
2023-05-14T17:03:29.511Z,61.83
2023-05-14T17:05:55.976Z,61.70
2023-05-14T17:08:22.480Z,61.80
2023-05-14T17:10:48.928Z,60.76
2023-05-14T17:13:15.460Z,61.09
2023-05-14T17:15:42.563Z,61.67
2023-05-14T17:18:09.218Z,60.69
2023-05-14T17:20:35.802Z,61.64
2023-05-14T17:23:02.360Z,61.11
2023-05-14T17:25:28.817Z,61.50
2023-05-14T17:27:55.342Z,61.48
2023-05-14T17:30:21.968Z,62.16
2023-05-14T17:32:50.898Z,62.27
2023-05-14T17:35:17.504Z,63.01
2023-05-14T17:37:44.004Z,62.99
2023-05-14T17:40:10.998Z,63.07
2023-05-14T17:42:37.400Z,63.18
2023-05-14T17:45:04.153Z,63.81
2023-05-14T17:47:30.697Z,64.31
2023-05-14T17:49:57.158Z,64.17
2023-05-14T17:52:23.685Z,64.32
2023-05-14T17:54:50.172Z,64.44
2023-05-14T17:57:16.925Z,65.00
2023-05-14T17:59:43.537Z,64.94
2023-05-14T18:02:09.969Z,65.10
2023-05-14T18:04:36.326Z,65.03
2023-05-14T18:07:03.222Z,65.05
2023-05-14T18:09:29.684Z,65.41
2023-05-14T18:11:57.068Z,66.11
2023-05-14T18:14:23.413Z,67.18
2023-05-14T18:16:49.991Z,67.39
2023-05-14T18:19:16.515Z,67.75
2023-05-14T18:21:43.241Z,67.44
2023-05-14T18:24:09.722Z,67.08
2023-05-14T18:26:36.335Z,67.32
2023-05-14T18:29:02.706Z,67.37
2023-05-14T18:31:29.223Z,67.89
2023-05-14T18:33:55.745Z,67.89
2023-05-14T18:36:22.311Z,68.20
2023-05-14T18:38:48.815Z,68.54
2023-05-14T18:41:15.390Z,68.76
2023-05-14T18:43:41.814Z,69.16
2023-05-14T18:46:08.381Z,69.30
2023-05-14T18:48:35.058Z,69.49
2023-05-14T18:51:01.644Z,69.99
2023-05-14T18:53:29.286Z,69.57
2023-05-14T18:55:56.100Z,69.86
2023-05-14T18:58:22.555Z,70.08
2023-05-14T19:00:49.161Z,70.14
2023-05-14T19:03:15.751Z,70.45
2023-05-14T19:05:42.383Z,70.98
2023-05-14T19:08:08.928Z,70.98
2023-05-14T19:10:35.310Z,71.11
2023-05-14T19:13:02.213Z,70.98
2023-05-14T19:15:28.687Z,71.10
2023-05-14T19:17:55.206Z,71.19
2023-05-14T19:20:21.788Z,71.19
2023-05-14T19:22:48.173Z,70.43
2023-05-14T19:25:14.948Z,70.29
2023-05-14T19:27:41.482Z,70.59
2023-05-14T19:30:08.386Z,70.54
2023-05-14T19:32:37.387Z,70.56
2023-05-14T19:35:05.796Z,70.66
2023-05-14T19:37:32.280Z,70.87
2023-05-14T19:39:58.706Z,71.13
2023-05-14T19:42:25.253Z,71.18
2023-05-14T19:44:51.646Z,71.29
2023-05-14T19:47:18.418Z,71.51
2023-05-14T19:49:44.897Z,71.64
2023-05-14T19:52:11.448Z,72.03
2023-05-14T19:54:37.922Z,72.20
2023-05-14T19:57:04.712Z,72.30
2023-05-14T19:59:31.231Z,72.84
2023-05-14T20:01:57.702Z,72.56
2023-05-14T20:04:26.079Z,72.44
2023-05-14T20:06:52.722Z,72.17
2023-05-14T20:09:20.092Z,72.27
2023-05-14T20:11:46.480Z,72.32
2023-05-14T20:14:12.878Z,72.04
2023-05-14T20:16:39.617Z,72.37
2023-05-14T20:19:06.616Z,72.54
2023-05-14T20:21:33.211Z,72.66
2023-05-14T20:23:59.637Z,72.13
2023-05-14T20:26:26.069Z,72.12
2023-05-14T20:28:53.614Z,72.26
2023-05-14T20:31:21.432Z,71.98
2023-05-14T20:33:48.222Z,71.82
2023-05-14T20:36:14.746Z,71.95
2023-05-14T20:38:41.743Z,72.20
2023-05-14T20:41:08.424Z,72.04
2023-05-14T20:43:34.923Z,71.99
2023-05-14T20:46:01.486Z,71.92
2023-05-14T20:48:27.916Z,71.63
2023-05-14T20:50:54.306Z,71.66
2023-05-14T20:53:21.036Z,71.56
2023-05-14T20:55:47.452Z,71.43
2023-05-14T20:58:13.854Z,71.71
2023-05-14T21:00:40.436Z,71.36
2023-05-14T21:03:07.146Z,71.77
2023-05-14T21:05:33.663Z,71.38
2023-05-14T21:08:00.150Z,71.88
2023-05-14T21:10:26.826Z,71.66
2023-05-14T21:12:53.371Z,71.42
2023-05-14T21:15:19.981Z,71.15
2023-05-14T21:17:46.490Z,71.51
2023-05-14T21:20:15.329Z,71.49
2023-05-14T21:22:41.769Z,71.55
2023-05-14T21:25:08.652Z,72.03
2023-05-14T21:27:35.207Z,71.62
2023-05-14T21:30:01.610Z,71.96
2023-05-14T21:32:28.259Z,72.54
2023-05-14T21:34:54.758Z,72.83
2023-05-14T21:37:21.808Z,73.12
2023-05-14T21:39:48.269Z,73.34
2023-05-14T21:42:16.066Z,73.49
2023-05-14T21:44:42.578Z,73.23
2023-05-14T21:47:09.023Z,73.53
2023-05-14T21:49:35.667Z,73.88
2023-05-14T21:52:02.195Z,73.92
2023-05-14T21:54:28.688Z,73.64
2023-05-14T21:56:55.389Z,73.38
2023-05-14T21:59:21.919Z,73.80
2023-05-14T22:02:05.681Z,74.04
2023-05-14T22:04:33.746Z,73.66
2023-05-14T22:07:00.157Z,74.07
2023-05-14T22:09:26.712Z,73.90
2023-05-14T22:11:53.170Z,73.79
2023-05-14T22:14:19.623Z,73.82
2023-05-14T22:16:47.189Z,73.16
2023-05-14T22:19:13.647Z,73.38
2023-05-14T22:21:40.239Z,73.22
2023-05-14T22:24:07.424Z,72.97
2023-05-14T22:26:34.642Z,72.78
2023-05-14T22:29:01.086Z,73.04
2023-05-14T22:31:27.578Z,72.92
2023-05-14T22:33:54.121Z,73.09
2023-05-14T22:36:20.557Z,73.20
2023-05-14T22:38:46.973Z,73.35
2023-05-14T22:41:13.447Z,73.68
2023-05-14T22:43:39.933Z,73.36
2023-05-14T22:46:06.873Z,73.49
2023-05-14T22:48:33.429Z,72.71
2023-05-14T22:50:59.835Z,72.48
2023-05-14T22:53:26.458Z,71.97
2023-05-14T22:55:52.955Z,71.96
2023-05-14T22:58:19.849Z,72.14
2023-05-14T23:00:46.424Z,72.51
2023-05-14T23:03:12.894Z,72.80
2023-05-14T23:05:39.548Z,72.58
2023-05-14T23:08:06.392Z,72.92
2023-05-14T23:10:33.659Z,72.29
2023-05-14T23:13:00.145Z,72.16
2023-05-14T23:15:26.874Z,72.10
2023-05-14T23:17:53.553Z,72.51
2023-05-14T23:20:20.200Z,72.25
2023-05-14T23:22:46.604Z,72.44
2023-05-14T23:25:13.105Z,72.82
2023-05-14T23:27:39.562Z,73.00
2023-05-14T23:30:06.802Z,73.31
2023-05-14T23:32:33.286Z,73.65
2023-05-14T23:34:59.728Z,73.63
2023-05-14T23:37:26.416Z,73.57
2023-05-14T23:39:53.392Z,72.94
2023-05-14T23:42:20.124Z,73.39
2023-05-14T23:44:46.794Z,73.07
2023-05-14T23:47:13.430Z,72.42
2023-05-14T23:49:40.771Z,71.73
2023-05-14T23:52:07.541Z,72.28
2023-05-14T23:54:33.961Z,72.25
2023-05-14T23:57:00.764Z,71.83
2023-05-14T23:59:27.194Z,72.43
